Terminal Aerodrome Forecast
Issued by NWS

Current Version | Previous Version | Text Only | Print | Product List | Glossary Off
Versions: 1 2 3 4 5 6 7 8 9 10 11 12 13 14 15 16 17 18 19 20

000
FTUS41 KILN 270520
TAFLUK
TAF
KLUK 270520Z 2706/2806 00000KT P6SM OVC050
     FM271400 04004KT P6SM BKN050
     FM271900 05005KT P6SM SCT050
     FM280000 00000KT P6SM SKC
     FM280400 00000KT 3SM BR SKC=

USA.gov is the U.S. government's official web portal to all federal, state and local government web resources and services.